Hatfield, Pennsylvania
Current Conditions -  °F | °C
As of 4:15 PM on Saturday 22 Nov 2014 (Local Time) from KLOM Reporting Station
Overcast Overcast  
Wind Chill: 37°   Ceiling: 6500
Heat Index: 43°   Visibility: 10mi
Dew Point: 21°   Wind: 12mph
Humidity: 42%   Direction: 210°SSW
Pressure: 30.28"   Gusts: 18mph
Location:  40.28°N, 75.3°W
Report Text: KLOM 222115Z AUTO 21010G16KT 10SM SCT050 BKN065 OVC070 06/M06 A3028 RMK AO1
Loading
Personal Weather Stations






























Interactive Weather Map New forecast layout! Learn more

10-Day Weather Forecast

Advertisements
Track Severe Weather on mobile